Time;durP1;ratioP1;P1;durP2;ratioP2;P2;SDS_P1;SDS_P2;PMS_P1;PMS_P2;Temp;Humidity;BMP_temperature;BMP_pressure;BME280_temperature;BME280_humidity;BME280_pressure;Samples;Min_cycle;Max_cycle;Signal;HPM_P1;HPM_P2
2022/12/19 00:01:15;;;;;;;12.10;6.82;;;-3275.50;80.60;;;;;;5005569;28;20036;-67
2022/12/19 00:03:45;;;;;;;14.52;7.28;;;-3275.50;80.60;;;;;;5006359;28;20708;-66
2022/12/19 00:06:11;;;;;;;12.98;7.18;;;-3275.60;80.70;;;;;;4996921;28;20041;-67
2022/12/19 00:08:39;;;;;;;14.25;6.57;;;-3275.60;80.60;;;;;;5005229;28;20045;-66
2022/12/19 00:11:04;;;;;;;15.18;7.40;;;-3275.60;80.40;;;;;;5008179;28;20034;-66
2022/12/19 00:13:30;;;;;;;13.68;6.60;;;-3275.60;80.70;;;;;;5006107;28;20026;-67
2022/12/19 00:16:01;;;;;;;13.73;7.30;;;-3275.60;80.80;;;;;;5006439;28;20030;-66
2022/12/19 00:18:27;;;;;;;15.63;7.13;;;-3275.60;80.90;;;;;;5007196;28;20030;-66
2022/12/19 00:20:57;;;;;;;14.80;8.02;;;-3275.60;81.00;;;;;;5006143;28;20045;-66
2022/12/19 00:23:23;;;;;;;;;;;-3275.70;80.50;;;;;;5006079;28;20165;-67
2022/12/19 00:25:49;;;;;;;13.00;6.95;;;-3275.70;80.80;;;;;;5004282;28;20020;-68
2022/12/19 00:28:14;;;;;;;13.48;7.18;;;-3275.70;81.00;;;;;;5005004;28;20312;-66
2022/12/19 00:30:40;;;;;;;16.38;7.03;;;-3275.70;81.30;;;;;;5006370;28;20040;-67
2022/12/19 00:33:05;;;;;;;13.75;7.28;;;-3275.60;81.40;;;;;;5006596;28;20450;-68
2022/12/19 00:35:31;;;;;;;12.63;6.65;;;-3275.70;81.30;;;;;;5006485;28;20044;-72
2022/12/19 00:37:56;;;;;;;13.98;7.32;;;-3275.70;81.70;;;;;;5009575;28;20084;-67
2022/12/19 00:40:22;;;;;;;17.27;7.20;;;-3275.70;81.60;;;;;;5002143;28;20458;-66
2022/12/19 00:42:47;;;;;;;14.00;6.78;;;-3275.70;81.50;;;;;;5008470;28;20176;-66
2022/12/19 00:45:13;;;;;;;14.13;7.15;;;-3275.70;81.50;;;;;;5002521;28;20030;-68
2022/12/19 00:47:38;;;;;;;12.80;6.93;;;-3275.70;81.90;;;;;;5006342;28;20038;-67
2022/12/19 00:50:04;;;;;;;20.35;7.90;;;-3275.70;81.80;;;;;;5005968;28;20038;-67
2022/12/19 00:52:29;;;;;;;13.55;6.95;;;-3275.80;81.50;;;;;;5005957;28;20500;-67
2022/12/19 00:54:55;;;;;;;14.65;7.53;;;-3275.70;81.80;;;;;;5004108;28;20038;-66
2022/12/19 00:57:20;;;;;;;18.05;8.18;;;-3275.70;82.00;;;;;;5012383;28;20454;-69
2022/12/19 00:59:46;;;;;;;14.63;7.32;;;-3275.80;82.00;;;;;;5012075;28;20035;-68
2022/12/19 01:02:11;;;;;;;12.77;7.38;;;-3275.70;82.10;;;;;;5012674;28;20069;-67
2022/12/19 01:04:37;;;;;;;15.02;6.97;;;-3275.70;82.30;;;;;;5005962;28;20064;-66
2022/12/19 01:07:04;;;;;;;15.13;8.07;;;-3275.80;82.40;;;;;;5009090;28;20038;-67
2022/12/19 01:09:31;;;;;;;14.32;7.40;;;-3275.80;82.20;;;;;;5010826;28;20034;-67
2022/12/19 01:14:41;;;;;;;16.52;8.10;;;-3275.80;82.60;;;;;;5010038;28;20494;-67
2022/12/19 01:17:06;;;;;;;13.55;7.32;;;-3275.80;82.40;;;;;;5011856;28;20050;-69
2022/12/19 01:19:31;;;;;;;16.58;8.02;;;-3275.90;82.40;;;;;;5009767;28;20049;-71
2022/12/19 01:21:57;;;;;;;15.48;7.65;;;-3275.90;82.50;;;;;;5008075;28;21734;-66
2022/12/19 01:24:22;;;;;;;14.70;7.53;;;-3275.90;82.50;;;;;;5010860;28;20038;-66
2022/12/19 01:26:48;;;;;;;14.85;7.40;;;-3275.90;82.50;;;;;;5009304;28;20034;-67
2022/12/19 01:29:13;;;;;;;15.25;7.45;;;-3275.90;82.80;;;;;;5011852;28;20119;-68
2022/12/19 01:31:39;;;;;;;15.52;7.90;;;-3275.90;82.70;;;;;;5011438;28;20041;-66
2022/12/19 01:34:04;;;;;;;16.88;8.18;;;-3275.90;82.50;;;;;;5005370;28;20493;-71
2022/12/19 01:36:30;;;;;;;14.80;7.80;;;-3275.90;82.90;;;;;;5010214;28;20041;-66
2022/12/19 01:38:58;;;;;;;14.23;7.30;;;-3275.90;82.90;;;;;;5012086;28;20081;-67
2022/12/19 01:41:24;;;;;;;17.13;7.57;;;-3276.00;83.10;;;;;;5010920;28;20033;-67
2022/12/19 01:44:05;;;;;;;15.40;8.10;;;-3276.00;83.30;;;;;;5010436;28;20046;-66
2022/12/19 01:46:33;;;;;;;15.95;8.02;;;-3276.00;83.90;;;;;;5011851;28;20048;-66
2022/12/19 01:49:00;;;;;;;12.40;6.97;;;-3276.00;84.30;;;;;;5009086;28;20489;-66
2022/12/19 01:51:33;;;;;;;14.40;8.05;;;-3276.00;84.80;;;;;;5005933;28;20041;-67
2022/12/19 01:54:03;;;;;;;16.10;7.57;;;-3276.00;85.60;;;;;;5010204;28;20038;-68
2022/12/19 01:56:37;;;;;;;15.07;8.02;;;-3276.00;86.20;;;;;;5011406;28;20038;-67
2022/12/19 01:59:07;;;;;;;18.60;8.00;;;-3276.00;86.30;;;;;;5014232;28;20466;-68
2022/12/19 02:01:33;;;;;;;15.23;7.93;;;-3275.90;87.30;;;;;;5009657;28;20112;-66
2022/12/19 02:04:01;;;;;;;17.33;8.80;;;-3275.90;87.80;;;;;;5006779;28;20034;-71
2022/12/19 02:06:27;;;;;;;18.42;8.13;;;-3275.90;88.00;;;;;;5003285;28;20076;-67
2022/12/19 02:08:54;;;;;;;15.48;8.50;;;-3275.90;88.40;;;;;;5012968;28;20049;-66
2022/12/19 02:11:19;;;;;;;17.25;8.30;;;-3275.90;88.60;;;;;;5009152;28;20489;-67
2022/12/19 02:13:45;;;;;;;15.75;8.20;;;-3276.00;88.80;;;;;;5012796;28;20029;-67
2022/12/19 02:16:20;;;;;;;16.60;8.90;;;-3275.90;89.60;;;;;;5010649;28;20073;-67
2022/12/19 02:18:56;;;;;;;17.67;9.30;;;-3275.90;89.70;;;;;;5012384;28;20081;-68
2022/12/19 02:21:46;;;;;;;17.58;8.52;;;-3276.00;90.20;;;;;;5002620;28;20037;-66
2022/12/19 02:25:08;;;;;;;17.02;9.45;;;-3275.90;90.40;;;;;;5008190;28;20030;-67
2022/12/19 02:28:18;;;;;;;16.70;8.57;;;-3275.90;90.60;;;;;;4963741;28;20049;-70
2022/12/19 02:31:08;;;;;;;16.25;8.98;;;-3275.90;91.10;;;;;;4967110;28;20495;-66
2022/12/19 02:33:42;;;;;;;19.13;9.50;;;-3275.90;91.40;;;;;;5006636;28;20033;-66
2022/12/19 02:36:35;;;;;;;17.88;8.35;;;-3275.90;91.70;;;;;;5008257;28;20091;-67
2022/12/19 02:39:15;;;;;;;18.13;9.05;;;-3275.90;91.90;;;;;;5008830;28;20066;-70
2022/12/19 02:41:46;;;;;;;18.13;9.33;;;-3275.90;92.30;;;;;;5008004;28;20042;-67
2022/12/19 02:44:15;;;;;;;;;;;-3276.00;92.40;;;;;;5004284;28;20294;-66
2022/12/19 02:46:43;;;;;;;14.05;7.88;;;-3275.90;92.50;;;;;;5010091;28;19924;-67
2022/12/19 02:49:09;;;;;;;22.63;9.88;;;-3275.90;92.50;;;;;;5009440;28;20044;-66
2022/12/19 02:51:35;;;;;;;17.63;8.93;;;-3276.00;92.60;;;;;;5007563;28;20038;-66
2022/12/19 02:54:00;;;;;;;19.48;9.98;;;-3276.00;92.80;;;;;;5006141;28;20455;-67
2022/12/19 02:56:48;;;;;;;20.25;10.20;;;-3276.00;92.90;;;;;;5005218;28;20029;-71
2022/12/19 02:59:17;;;;;;;18.17;9.85;;;-3276.00;93.20;;;;;;5007134;28;20022;-67
2022/12/19 03:01:55;;;;;;;22.55;11.23;;;-3276.00;93.40;;;;;;5011147;28;20038;-66
2022/12/19 03:04:26;;;;;;;21.30;10.70;;;-3276.00;93.60;;;;;;4998006;28;20030;-67
2022/12/19 03:07:00;;;;;;;18.63;10.05;;;-3276.10;93.70;;;;;;5003998;28;20050;-66
2022/12/19 03:09:38;;;;;;;19.08;10.05;;;-3276.10;93.80;;;;;;5003465;28;20347;-66
2022/12/19 03:12:13;;;;;;;18.42;9.93;;;-3276.10;94.00;;;;;;5006167;28;20033;-67
2022/12/19 03:14:39;;;;;;;19.65;10.20;;;-3276.10;94.20;;;;;;5008010;28;20045;-66
2022/12/19 03:17:06;;;;;;;19.23;11.20;;;-3276.10;94.30;;;;;;5008265;28;20034;-66
2022/12/19 03:19:34;;;;;;;19.60;10.25;;;-3276.10;94.50;;;;;;5006751;28;20033;-67
2022/12/19 03:22:00;;;;;;;22.40;11.57;;;-3276.10;94.60;;;;;;5011630;28;20477;-67
2022/12/19 03:24:26;;;;;;;23.52;10.93;;;-3276.10;94.70;;;;;;5008456;28;20041;-66
2022/12/19 03:27:15;;;;;;;18.20;9.93;;;-3276.10;94.80;;;;;;5006987;28;20034;-66
2022/12/19 03:30:00;;;;;;;20.42;11.57;;;-3276.10;94.90;;;;;;5006140;28;20026;-66
2022/12/19 03:32:27;;;;;;;24.77;11.73;;;-3276.10;95.00;;;;;;5009098;28;20034;-66
2022/12/19 03:35:04;;;;;;;24.10;11.77;;;-3276.20;95.20;;;;;;5008241;28;20034;-66
2022/12/19 03:37:34;;;;;;;21.60;11.57;;;-3276.20;95.20;;;;;;5005088;28;20159;-66
2022/12/19 03:40:04;;;;;;;22.98;11.90;;;-3276.20;95.20;;;;;;5006046;28;20026;-67
2022/12/19 03:45:22;;;;;;;24.08;11.88;;;-3276.20;95.30;;;;;;5002541;28;20547;-66
2022/12/19 03:47:55;;;;;;;23.60;12.57;;;-3276.30;95.30;;;;;;5009973;28;20038;-67
2022/12/19 03:50:24;;;;;;;21.67;11.15;;;-3276.30;95.40;;;;;;5005754;28;20049;-67
2022/12/19 03:53:04;;;;;;;24.60;12.18;;;-3276.30;95.30;;;;;;5003740;28;20034;-71
2022/12/19 03:55:37;;;;;;;23.58;11.60;;;-3276.30;95.30;;;;;;5003645;28;20022;-70
2022/12/19 03:58:10;;;;;;;28.15;13.10;;;-3276.40;95.20;;;;;;5005382;28;21172;-67
2022/12/19 04:00:39;;;;;;;22.45;11.77;;;-3276.40;95.20;;;;;;5007197;28;20033;-67
2022/12/19 04:03:06;;;;;;;23.25;12.32;;;-3276.40;95.30;;;;;;5009490;28;20022;-66
2022/12/19 04:05:33;;;;;;;21.98;11.90;;;-3276.50;95.20;;;;;;4999554;28;20030;-69
2022/12/19 04:08:03;;;;;;;23.95;12.18;;;-3276.50;95.20;;;;;;5008128;28;20037;-66
2022/12/19 04:10:29;;;;;;;24.67;12.68;;;-3276.50;95.20;;;;;;5002668;28;20117;-67
2022/12/19 04:13:12;;;;;;;24.00;13.45;;;-3276.50;95.20;;;;;;5008355;28;20068;-66
2022/12/19 04:16:09;;;;;;;23.10;10.82;;;-3276.50;95.30;;;;;;5004184;28;20018;-67
2022/12/19 04:18:36;;;;;;;21.98;11.52;;;-3276.60;95.30;;;;;;5008526;28;20034;-67
2022/12/19 04:21:16;;;;;;;23.42;12.85;;;-3276.60;95.20;;;;;;5005596;28;20029;-67
2022/12/19 04:23:47;;;;;;;24.85;12.88;;;-3276.60;95.00;;;;;;5007031;28;20042;-67
2022/12/19 04:26:17;;;;;;;24.60;12.27;;;-3276.60;95.20;;;;;;5005647;28;20061;-67
2022/12/19 04:28:53;;;;;;;26.13;12.93;;;-3276.70;95.10;;;;;;5005766;28;20088;-68
2022/12/19 04:31:19;;;;;;;21.67;11.65;;;-3276.70;95.20;;;;;;5004555;28;20105;-67
2022/12/19 04:33:45;;;;;;;22.90;12.23;;;-3276.70;95.20;;;;;;5013486;28;20034;-66
2022/12/19 04:36:10;;;;;;;23.70;11.95;;;0.00;95.20;;;;;;5009426;28;20095;-67
2022/12/19 04:38:36;;;;;;;22.08;11.93;;;0.00;95.20;;;;;;5022972;28;20068;-66
2022/12/19 04:41:02;;;;;;;26.13;12.45;;;0.00;95.00;;;;;;5011182;28;20022;-69
2022/12/19 04:43:27;;;;;;;25.20;12.15;;;0.00;95.10;;;;;;5011164;28;20054;-68
2022/12/19 04:45:53;;;;;;;25.95;13.02;;;0.00;95.20;;;;;;5009340;28;20052;-67
2022/12/19 04:48:18;;;;;;;23.85;12.55;;;0.00;95.30;;;;;;5011252;28;20398;-66
2022/12/19 04:50:44;;;;;;;21.10;11.35;;;0.00;95.30;;;;;;5008808;28;20034;-67
2022/12/19 04:53:09;;;;;;;23.77;12.90;;;0.10;95.60;;;;;;5008617;28;20112;-66
2022/12/19 04:55:35;;;;;;;22.33;12.07;;;0.10;95.70;;;;;;5011466;28;20038;-67
2022/12/19 04:58:02;;;;;;;23.48;12.73;;;0.10;95.60;;;;;;5009937;28;20069;-70
2022/12/19 05:00:28;;;;;;;27.33;12.40;;;0.10;95.80;;;;;;5010806;28;20087;-70
2022/12/19 05:02:53;;;;;;;23.75;13.18;;;0.10;95.90;;;;;;5007240;28;20414;-68
2022/12/19 05:05:19;;;;;;;28.98;13.38;;;0.10;95.90;;;;;;5007205;28;20056;-66
2022/12/19 05:07:45;;;;;;;26.65;12.98;;;0.10;96.00;;;;;;5013252;28;20034;-67
2022/12/19 05:10:11;;;;;;;27.88;12.70;;;0.20;96.20;;;;;;5010741;28;20374;-66
2022/12/19 05:12:36;;;;;;;24.13;12.85;;;0.20;96.30;;;;;;5031827;28;20038;-66
2022/12/19 05:15:02;;;;;;;27.05;13.40;;;0.20;96.40;;;;;;5015574;28;20433;-66
2022/12/19 05:17:27;;;;;;;23.02;11.85;;;0.20;96.40;;;;;;5014767;28;20549;-67
2022/12/19 05:19:53;;;;;;;24.70;12.95;;;0.30;96.60;;;;;;5022536;28;20037;-70
2022/12/19 05:22:18;;;;;;;24.90;12.50;;;0.30;96.80;;;;;;5020894;28;20056;-67
2022/12/19 05:24:44;;;;;;;29.25;12.93;;;0.30;96.80;;;;;;5011896;28;20088;-66
2022/12/19 05:27:09;;;;;;;26.33;13.30;;;0.40;96.90;;;;;;5013241;28;20046;-66
2022/12/19 05:29:35;;;;;;;23.73;12.45;;;0.40;96.90;;;;;;5021278;28;20037;-66
2022/12/19 05:32:00;;;;;;;29.35;13.55;;;0.40;96.90;;;;;;5033370;28;20028;-69
2022/12/19 05:34:26;;;;;;;26.20;12.52;;;0.40;96.90;;;;;;5014756;28;20124;-68
2022/12/19 05:36:51;;;;;;;28.80;14.00;;;0.40;96.90;;;;;;5010342;28;20045;-68
2022/12/19 05:39:17;;;;;;;25.95;13.52;;;0.40;97.00;;;;;;5013378;28;20077;-68
2022/12/19 05:41:43;;;;;;;25.23;13.65;;;0.40;97.00;;;;;;5012870;28;20125;-68
2022/12/19 05:44:08;;;;;;;26.27;13.95;;;0.50;96.90;;;;;;5006822;28;20038;-68
2022/12/19 05:46:34;;;;;;;26.17;14.20;;;0.50;96.80;;;;;;5005540;28;20430;-67
2022/12/19 05:49:00;;;;;;;26.58;13.80;;;0.60;96.90;;;;;;5006673;28;20086;-70
2022/12/19 05:51:25;;;;;;;28.50;14.15;;;0.50;96.80;;;;;;5009313;28;20421;-67
2022/12/19 05:53:51;;;;;;;25.83;13.55;;;0.60;96.80;;;;;;5008400;28;20076;-68
2022/12/19 05:56:18;;;;;;;27.88;13.80;;;0.60;96.80;;;;;;5011572;28;20133;-68
2022/12/19 05:58:44;;;;;;;23.55;12.02;;;0.70;96.80;;;;;;5006787;28;20069;-68
2022/12/19 06:01:22;;;;;;;29.40;13.27;;;0.70;96.70;;;;;;5001851;28;20105;-68
2022/12/19 06:03:48;;;;;;;25.60;13.15;;;0.70;96.70;;;;;;5006780;28;20447;-67
2022/12/19 06:06:16;;;;;;;26.52;13.27;;;0.70;96.60;;;;;;5005089;28;20133;-68
2022/12/19 06:08:42;;;;;;;26.48;13.23;;;0.80;96.50;;;;;;5009621;28;20069;-67
2022/12/19 06:11:09;;;;;;;28.17;12.88;;;0.70;96.50;;;;;;5011656;28;20038;-68
2022/12/19 06:13:36;;;;;;;28.08;13.45;;;0.80;96.50;;;;;;5008320;28;20022;-68
2022/12/19 06:16:08;;;;;;;25.10;12.90;;;0.80;96.50;;;;;;5009770;28;20095;-68
2022/12/19 06:18:34;;;;;;;26.52;13.07;;;0.80;96.40;;;;;;5004125;28;20458;-68
2022/12/19 06:21:02;;;;;;;25.35;13.18;;;0.90;96.40;;;;;;5007183;28;20041;-68
2022/12/19 06:23:30;;;;;;;31.30;13.65;;;0.80;96.30;;;;;;5010672;28;20089;-68
2022/12/19 06:25:56;;;;;;;27.30;12.88;;;0.90;96.30;;;;;;5008457;28;20041;-70
2022/12/19 06:28:22;;;;;;;29.02;13.48;;;0.90;96.30;;;;;;5003936;28;20052;-70
2022/12/19 06:30:48;;;;;;;22.67;12.23;;;1.00;96.20;;;;;;5009001;28;20038;-70
2022/12/19 06:33:13;;;;;;;24.25;13.50;;;0.90;96.20;;;;;;5010950;28;20042;-71
2022/12/19 06:35:39;;;;;;;22.27;12.77;;;0.90;96.50;;;;;;5005979;28;20069;-70
2022/12/19 06:38:04;;;;;;;24.83;12.25;;;0.90;96.50;;;;;;5011010;28;20034;-70
2022/12/19 06:43:14;;;;;;;26.30;12.32;;;1.00;96.50;;;;;;5008925;28;20096;-70
2022/12/19 06:45:39;;;;;;;22.65;12.40;;;1.00;96.60;;;;;;5008865;28;20117;-70
2022/12/19 06:48:05;;;;;;;24.55;12.13;;;1.00;96.70;;;;;;5012198;28;20065;-71
2022/12/19 06:50:30;;;;;;;23.17;11.85;;;1.00;96.80;;;;;;5006031;28;20026;-70
2022/12/19 06:52:56;;;;;;;26.20;13.13;;;1.00;96.70;;;;;;5010542;28;20072;-70
2022/12/19 06:55:21;;;;;;;23.40;12.35;;;1.10;96.90;;;;;;5006457;28;20064;-71
2022/12/19 06:57:47;;;;;;;24.42;12.88;;;1.10;96.80;;;;;;5009464;28;20038;-70
2022/12/19 07:00:13;;;;;;;29.38;13.90;;;1.10;96.80;;;;;;5003913;28;20076;-71
2022/12/19 07:02:42;;;;;;;26.52;12.73;;;1.20;96.90;;;;;;5012793;28;20066;-72
2022/12/19 07:05:09;;;;;;;29.20;12.32;;;1.30;97.10;;;;;;5004579;28;20401;-71
2022/12/19 07:07:34;;;;;;;25.55;12.90;;;1.30;97.10;;;;;;5008852;28;20046;-70
2022/12/19 07:10:00;;;;;;;23.33;13.65;;;1.40;97.20;;;;;;5012360;28;20091;-70
2022/12/19 07:12:25;;;;;;;24.58;13.07;;;1.40;97.20;;;;;;5005084;28;20018;-71
2022/12/19 07:14:51;;;;;;;26.75;12.27;;;1.40;97.40;;;;;;5009061;28;20117;-70
2022/12/19 07:17:17;;;;;;;25.73;12.63;;;1.50;97.40;;;;;;5008930;28;20038;-71
2022/12/19 07:19:44;;;;;;;23.52;12.82;;;1.50;97.50;;;;;;5005624;28;20038;-72
2022/12/19 07:22:09;;;;;;;29.58;14.00;;;1.60;97.50;;;;;;5003808;28;20036;-71
2022/12/19 07:24:35;;;;;;;27.33;12.95;;;1.60;97.50;;;;;;5001488;28;20025;-71
2022/12/19 07:27:01;;;;;;;23.30;12.60;;;1.60;97.50;;;;;;5009150;28;20034;-71
2022/12/19 07:29:27;;;;;;;24.63;12.30;;;1.60;97.50;;;;;;5004993;28;20038;-70
2022/12/19 07:31:53;;;;;;;24.10;13.52;;;1.50;97.60;;;;;;5006984;28;20044;-71
2022/12/19 07:34:18;;;;;;;30.00;13.82;;;1.50;97.70;;;;;;5003960;28;20065;-71
2022/12/19 07:36:44;;;;;;;24.25;12.88;;;1.50;97.70;;;;;;5009525;28;20397;-70
2022/12/19 07:39:10;;;;;;;27.13;13.38;;;1.40;97.80;;;;;;5009396;28;20458;-70
2022/12/19 07:41:36;;;;;;;30.88;13.30;;;1.40;97.90;;;;;;5010060;28;20516;-71
2022/12/19 07:44:02;;;;;;;27.75;12.30;;;1.40;98.10;;;;;;5005012;28;20053;-70
2022/12/19 07:46:30;;;;;;;27.30;14.27;;;1.40;98.30;;;;;;5004495;28;20038;-71
2022/12/19 07:48:56;;;;;;;23.80;12.93;;;1.50;98.40;;;;;;4999075;28;20390;-70
2022/12/19 07:51:21;;;;;;;28.20;13.95;;;1.40;98.40;;;;;;5002679;28;20030;-70
2022/12/19 07:53:47;;;;;;;27.40;13.75;;;1.50;98.60;;;;;;4998354;28;20732;-70
2022/12/19 07:56:13;;;;;;;30.10;15.15;;;1.50;98.70;;;;;;5006191;28;20128;-70
2022/12/19 07:58:39;;;;;;;29.17;13.82;;;1.50;98.70;;;;;;5003889;28;20034;-70
2022/12/19 08:01:05;;;;;;;28.65;14.27;;;1.50;98.70;;;;;;5008302;28;20104;-70
2022/12/19 08:03:31;;;;;;;27.25;13.68;;;1.50;98.80;;;;;;5009699;28;20057;-70
2022/12/19 08:06:00;;;;;;;32.83;14.68;;;1.50;98.80;;;;;;5005734;28;20084;-70
2022/12/19 08:08:27;;;;;;;31.23;14.10;;;1.50;98.90;;;;;;5005445;28;20120;-72
2022/12/19 08:10:52;;;;;;;27.23;14.48;;;1.50;99.10;;;;;;5000760;28;20021;-71
2022/12/19 08:13:18;;;;;;;34.13;15.40;;;1.60;99.00;;;;;;4997358;28;20171;-70
2022/12/19 08:15:43;;;;;;;29.17;14.43;;;1.60;99.00;;;;;;5010928;28;20077;-67
2022/12/19 08:18:09;;;;;;;31.27;15.50;;;1.60;99.10;;;;;;5007418;28;20497;-68
2022/12/19 08:20:34;;;;;;;29.77;14.93;;;1.60;99.10;;;;;;5003630;28;20060;-70
2022/12/19 08:22:59;;;;;;;33.60;16.45;;;1.60;99.10;;;;;;5003180;28;20034;-68
2022/12/19 08:25:27;;;;;;;32.92;14.88;;;1.60;99.20;;;;;;5004808;28;20030;-68
2022/12/19 08:27:52;;;;;;;29.02;14.38;;;1.70;99.30;;;;;;5004102;28;20040;-68
2022/12/19 08:30:18;;;;;;;34.55;15.65;;;1.60;99.30;;;;;;5008648;28;20113;-68
2022/12/19 08:32:44;;;;;;;34.20;15.65;;;1.60;99.30;;;;;;5004159;28;20042;-68
2022/12/19 08:35:09;;;;;;;27.27;14.10;;;1.70;99.40;;;;;;5005808;28;20040;-68
2022/12/19 08:37:35;;;;;;;31.60;14.38;;;1.70;99.50;;;;;;5006775;28;20116;-69
2022/12/19 08:40:00;;;;;;;35.55;14.98;;;1.70;99.60;;;;;;5009286;28;20030;-68
2022/12/19 08:42:26;;;;;;;35.25;16.63;;;1.70;99.50;;;;;;5005119;28;20394;-68
2022/12/19 08:44:51;;;;;;;34.33;15.77;;;1.70;99.70;;;;;;5003944;28;20397;-68
2022/12/19 08:47:17;;;;;;;37.85;15.68;;;1.80;99.70;;;;;;5006733;28;20084;-68
2022/12/19 08:49:42;;;;;;;29.42;14.60;;;1.70;99.60;;;;;;5001988;28;20038;-68
2022/12/19 08:52:08;;;;;;;36.50;16.58;;;1.80;99.80;;;;;;4996916;28;20040;-67
2022/12/19 08:54:33;;;;;;;31.55;15.32;;;1.90;99.90;;;;;;5005546;28;20376;-70
2022/12/19 08:56:59;;;;;;;32.22;16.25;;;2.00;99.90;;;;;;5002288;28;20034;-68
2022/12/19 08:59:24;;;;;;;33.13;14.95;;;2.10;99.90;;;;;;5006093;28;20442;-68
2022/12/19 09:01:50;;;;;;;36.92;15.68;;;2.10;99.90;;;;;;5012106;28;20382;-70
2022/12/19 09:04:16;;;;;;;30.45;14.43;;;2.10;99.90;;;;;;5005033;28;20382;-72
2022/12/19 09:06:41;;;;;;;34.03;16.23;;;2.20;99.90;;;;;;5007088;28;20046;-71
2022/12/19 09:09:07;;;;;;;33.90;16.55;;;2.10;99.90;;;;;;4997460;28;20029;-70
2022/12/19 09:11:32;;;;;;;31.75;15.32;;;2.30;99.90;;;;;;5002907;28;20111;-72
2022/12/19 09:13:58;;;;;;;31.58;15.45;;;2.30;99.90;;;;;;5002630;28;20451;-70
2022/12/19 09:16:26;;;;;;;30.85;15.68;;;2.20;99.90;;;;;;5006661;28;20512;-71
2022/12/19 09:18:53;;;;;;;30.95;15.35;;;2.30;99.90;;;;;;4996702;28;20050;-72
2022/12/19 09:21:21;;;;;;;31.75;16.00;;;2.30;99.90;;;;;;5000602;28;20030;-72
2022/12/19 09:23:55;;;;;;;33.17;15.32;;;2.30;99.90;;;;;;5007224;28;20126;-71
2022/12/19 09:26:22;;;;;;;35.95;15.75;;;2.30;99.90;;;;;;5010272;28;20504;-72
2022/12/19 09:28:48;;;;;;;37.28;16.02;;;2.40;99.90;;;;;;5006315;28;20054;-69
2022/12/19 09:31:18;;;;;;;37.13;16.02;;;2.30;99.90;;;;;;5002936;28;20069;-72
2022/12/19 09:33:44;;;;;;;32.53;15.73;;;2.40;99.90;;;;;;5011148;28;20041;-72
2022/12/19 09:36:15;;;;;;;35.85;15.88;;;2.40;99.90;;;;;;5007436;28;20029;-72
2022/12/19 09:38:41;;;;;;;32.72;15.40;;;2.40;99.90;;;;;;5005150;28;20041;-72
2022/12/19 09:41:12;;;;;;;31.60;15.13;;;2.40;99.90;;;;;;5010637;28;20034;-71
2022/12/19 09:43:53;;;;;;;33.92;16.60;;;2.40;99.90;;;;;;5007843;28;20054;-69
2022/12/19 09:46:25;;;;;;;37.35;16.15;;;2.50;99.90;;;;;;5008384;28;20474;-69
2022/12/19 09:48:54;;;;;;;32.53;15.80;;;2.50;99.90;;;;;;5011432;28;20045;-70
2022/12/19 09:51:48;;;;;;;38.42;17.33;;;2.40;99.90;;;;;;5002488;28;20026;-69
2022/12/19 09:54:35;;;;;;;28.95;15.35;;;2.50;99.90;;;;;;5008909;28;20052;-69
2022/12/19 09:57:05;;;;;;;33.10;15.82;;;2.50;99.90;;;;;;5007927;28;20172;-71
2022/12/19 09:59:39;;;;;;;41.15;15.90;;;2.50;99.90;;;;;;5009364;28;20061;-71
2022/12/19 10:02:43;;;;;;;30.90;15.25;;;2.50;99.90;;;;;;5009338;28;20030;-71
2022/12/19 10:05:41;;;;;;;33.63;15.75;;;2.50;99.90;;;;;;5004068;28;20130;-70
2022/12/19 10:08:20;;;;;;;33.55;15.20;;;2.60;99.90;;;;;;5007914;28;20038;-72
2022/12/19 10:11:03;;;;;;;28.88;14.20;;;2.60;99.90;;;;;;5007525;28;20112;-72
2022/12/19 10:13:44;;;;;;;29.17;14.60;;;2.70;99.90;;;;;;5004966;28;20033;-71
2022/12/19 10:16:25;;;;;;;25.75;13.13;;;2.80;99.90;;;;;;5008109;28;20139;-71
2022/12/19 10:18:57;;;;;;;30.05;14.32;;;2.80;99.90;;;;;;5008086;28;20490;-71
2022/12/19 10:21:58;;;;;;;26.85;13.23;;;2.90;99.90;;;;;;5005179;28;20038;-71
2022/12/19 10:24:50;;;;;;;25.73;13.73;;;3.00;99.90;;;;;;5005505;28;20044;-71
2022/12/19 10:28:02;;;;;;;31.70;14.85;;;3.00;99.90;;;;;;5003195;28;20462;-71
2022/12/19 10:30:34;;;;;;;26.85;14.30;;;3.10;99.90;;;;;;4925508;29;20420;-69
2022/12/19 10:33:32;;;;;;;31.58;14.75;;;3.10;99.90;;;;;;4997351;28;20053;-69
2022/12/19 10:36:00;;;;;;;28.33;14.68;;;3.00;99.90;;;;;;5007456;28;20041;-68
2022/12/19 10:38:31;;;;;;;31.20;15.48;;;3.00;99.90;;;;;;5006001;28;20390;-68
2022/12/19 10:41:10;;;;;;;27.42;14.60;;;3.10;99.90;;;;;;5007401;28;20029;-68
2022/12/19 10:44:07;;;;;;;33.72;15.80;;;3.10;99.90;;;;;;5003144;28;20064;-68
2022/12/19 10:46:44;;;;;;;27.75;14.93;;;3.10;99.90;;;;;;5003545;28;20069;-68
2022/12/19 10:49:15;;;;;;;33.45;15.63;;;3.10;99.90;;;;;;5009052;28;20034;-69
2022/12/19 10:51:41;;;;;;;;;;;3.10;99.90;;;;;;4999865;28;20033;-69
2022/12/19 10:54:07;;;;;;;28.35;13.82;;;3.10;99.90;;;;;;5006634;28;20003;-69
2022/12/19 10:56:34;;;;;;;34.38;15.77;;;3.10;99.90;;;;;;5011325;28;20156;-69
2022/12/19 10:59:00;;;;;;;32.00;15.20;;;3.10;99.90;;;;;;5009754;28;20034;-71
2022/12/19 11:01:36;;;;;;;32.30;14.68;;;3.20;99.90;;;;;;5008974;28;20631;-68
2022/12/19 11:04:31;;;;;;;36.67;16.98;;;3.20;99.90;;;;;;5005296;28;20484;-71
2022/12/19 11:07:02;;;;;;;30.58;14.70;;;3.30;99.90;;;;;;4999981;28;20117;-70
2022/12/19 11:09:46;;;;;;;31.65;16.20;;;3.40;99.90;;;;;;5008542;28;20067;-69
2022/12/19 11:12:14;;;;;;;32.15;15.38;;;3.40;99.90;;;;;;5005191;28;20026;-69
2022/12/19 11:14:52;;;;;;;38.45;16.33;;;3.40;99.90;;;;;;5009019;28;20021;-68
2022/12/19 11:17:32;;;;;;;30.73;15.95;;;3.50;99.90;;;;;;5012041;28;20071;-69
2022/12/19 11:19:58;;;;;;;36.58;16.15;;;3.40;99.90;;;;;;5008078;28;20026;-69
2022/12/19 11:22:29;;;;;;;33.33;15.60;;;3.50;99.90;;;;;;5013231;28;20046;-69
2022/12/19 11:24:56;;;;;;;31.63;16.23;;;3.50;99.90;;;;;;5019303;28;20099;-71
2022/12/19 11:27:32;;;;;;;35.22;15.52;;;3.50;99.90;;;;;;5005452;28;20050;-69
2022/12/19 11:29:59;;;;;;;34.25;16.60;;;3.50;99.90;;;;;;5011116;28;20029;-69
2022/12/19 11:32:33;;;;;;;33.10;15.13;;;3.50;99.90;;;;;;5013645;28;20030;-69
2022/12/19 11:35:14;;;;;;;32.45;15.13;;;3.40;99.90;;;;;;5010528;28;20040;-69
2022/12/19 11:38:05;;;;;;;30.13;13.80;;;3.50;99.90;;;;;;5005967;28;20366;-68
2022/12/19 11:40:32;;;;;;;26.42;14.00;;;3.60;99.90;;;;;;5010435;28;20060;-69
2022/12/19 11:43:18;;;;;;;30.38;15.05;;;3.60;99.90;;;;;;5009069;28;20045;-70
2022/12/19 11:46:01;;;;;;;30.80;14.45;;;3.70;99.90;;;;;;4997325;28;20053;-69
2022/12/19 11:48:46;;;;;;;24.98;13.15;;;3.70;99.90;;;;;;5010256;28;20217;-69
2022/12/19 11:51:33;;;;;;;30.10;13.23;;;3.80;99.90;;;;;;4997099;28;20029;-70
2022/12/19 11:54:12;;;;;;;27.10;12.13;;;3.80;99.90;;;;;;5013822;28;20121;-70
2022/12/19 11:56:38;;;;;;;24.10;12.63;;;3.90;99.90;;;;;;5015267;28;20044;-70
2022/12/19 11:59:16;;;;;;;25.45;13.15;;;3.90;99.90;;;;;;5007656;28;20025;-69
2022/12/19 12:01:46;;;;;;;24.52;12.15;;;3.90;99.90;;;;;;5006630;28;20030;-69
2022/12/19 12:04:36;;;;;;;23.65;11.85;;;4.00;99.90;;;;;;5013046;28;20036;-69
2022/12/19 12:07:04;;;;;;;22.33;11.52;;;4.00;99.90;;;;;;5003257;28;20030;-70
2022/12/19 12:09:43;;;;;;;24.77;12.18;;;4.10;99.90;;;;;;5008440;28;20022;-68
2022/12/19 12:12:22;;;;;;;25.88;12.70;;;4.10;99.90;;;;;;5004098;28;20040;-68
2022/12/19 12:15:26;;;;;;;25.73;12.65;;;4.10;99.90;;;;;;5010161;28;20033;-67
2022/12/19 12:18:11;;;;;;;23.75;12.73;;;4.10;99.90;;;;;;5007892;28;20034;-69
2022/12/19 12:21:11;;;;;;;27.77;13.73;;;4.20;99.90;;;;;;5003411;28;20476;-68
2022/12/19 12:23:55;;;;;;;28.98;14.05;;;4.20;99.90;;;;;;5003988;28;20057;-68
2022/12/19 12:26:41;;;;;;;28.77;13.73;;;4.20;99.90;;;;;;4997324;28;20463;-69
2022/12/19 12:29:15;;;;;;;29.23;13.52;;;4.20;99.90;;;;;;5013026;28;20033;-69
2022/12/19 12:31:47;;;;;;;25.08;12.70;;;4.30;99.90;;;;;;4996848;28;20038;-68
2022/12/19 12:34:49;;;;;;;31.55;14.30;;;4.30;99.90;;;;;;5002280;28;20061;-68
2022/12/19 12:37:36;;;;;;;25.73;13.35;;;4.30;99.90;;;;;;5002933;28;20105;-68
2022/12/19 12:40:30;;;;;;;26.40;13.07;;;4.40;99.90;;;;;;5003302;28;20022;-68
2022/12/19 12:43:24;;;;;;;26.63;15.00;;;4.30;99.90;;;;;;4998864;28;20057;-69
2022/12/19 12:45:49;;;;;;;26.50;14.15;;;4.50;99.90;;;;;;5002162;28;20500;-70
2022/12/19 12:48:24;;;;;;;29.85;14.52;;;4.50;99.90;;;;;;5005123;28;20034;-69
2022/12/19 12:50:51;;;;;;;28.42;15.00;;;4.50;99.90;;;;;;4989501;28;20647;-71
2022/12/19 12:53:21;;;;;;;24.63;14.65;;;4.50;99.90;;;;;;5007672;28;20409;-69